sensor_id;sensor_type;location;lat;lon;timestamp;P1;durP1;ratioP1;P2;durP2;ratioP2
40322;SDS011;26030;51.164;17.100;2022-09-13T00:04:19;5.50;;;3.00;;
40322;SDS011;26030;51.164;17.100;2022-09-13T00:09:23;3.60;;;2.50;;
40322;SDS011;26030;51.164;17.100;2022-09-13T00:14:27;5.30;;;2.90;;
40322;SDS011;26030;51.164;17.100;2022-09-13T00:19:30;3.90;;;2.80;;
40322;SDS011;26030;51.164;17.100;2022-09-13T00:24:34;5.20;;;2.60;;
40322;SDS011;26030;51.164;17.100;2022-09-13T00:29:39;4.20;;;2.50;;
40322;SDS011;26030;51.164;17.100;2022-09-13T00:34:44;4.00;;;2.40;;
40322;SDS011;26030;51.164;17.100;2022-09-13T00:39:48;3.90;;;2.80;;
40322;SDS011;26030;51.164;17.100;2022-09-13T00:50:42;3.70;;;2.50;;
40322;SDS011;26030;51.164;17.100;2022-09-13T00:56:07;3.20;;;2.40;;
40322;SDS011;26030;51.164;17.100;2022-09-13T01:01:20;4.20;;;2.60;;
40322;SDS011;26030;51.164;17.100;2022-09-13T01:06:30;3.60;;;2.50;;
40322;SDS011;26030;51.164;17.100;2022-09-13T01:11:45;4.50;;;2.50;;
40322;SDS011;26030;51.164;17.100;2022-09-13T01:16:51;3.70;;;2.20;;
40322;SDS011;26030;51.164;17.100;2022-09-13T01:27:46;4.90;;;2.80;;
40322;SDS011;26030;51.164;17.100;2022-09-13T01:38:44;3.30;;;2.20;;
40322;SDS011;26030;51.164;17.100;2022-09-13T01:43:55;5.20;;;2.40;;
40322;SDS011;26030;51.164;17.100;2022-09-13T01:49:18;5.00;;;2.70;;
40322;SDS011;26030;51.164;17.100;2022-09-13T02:00:03;3.90;;;2.40;;
40322;SDS011;26030;51.164;17.100;2022-09-13T02:10:55;4.40;;;2.40;;
40322;SDS011;26030;51.164;17.100;2022-09-13T02:16:09;4.20;;;2.40;;
40322;SDS011;26030;51.164;17.100;2022-09-13T02:21:21;3.40;;;2.30;;
40322;SDS011;26030;51.164;17.100;2022-09-13T02:26:35;3.80;;;2.40;;
40322;SDS011;26030;51.164;17.100;2022-09-13T02:31:46;4.40;;;2.50;;
40322;SDS011;26030;51.164;17.100;2022-09-13T02:36:55;3.00;;;2.20;;
40322;SDS011;26030;51.164;17.100;2022-09-13T02:42:47;3.40;;;2.20;;
40322;SDS011;26030;51.164;17.100;2022-09-13T02:47:58;5.00;;;2.70;;
40322;SDS011;26030;51.164;17.100;2022-09-13T02:59:02;3.90;;;2.20;;
40322;SDS011;26030;51.164;17.100;2022-09-13T03:04:17;3.50;;;2.40;;
40322;SDS011;26030;51.164;17.100;2022-09-13T03:09:30;3.30;;;2.20;;
40322;SDS011;26030;51.164;17.100;2022-09-13T03:15:09;4.00;;;2.30;;
40322;SDS011;26030;51.164;17.100;2022-09-13T03:20:40;4.00;;;2.30;;
40322;SDS011;26030;51.164;17.100;2022-09-13T03:31:09;3.60;;;2.30;;
40322;SDS011;26030;51.164;17.100;2022-09-13T03:36:36;4.10;;;2.30;;
40322;SDS011;26030;51.164;17.100;2022-09-13T03:41:54;3.00;;;2.20;;
40322;SDS011;26030;51.164;17.100;2022-09-13T03:47:07;3.30;;;2.30;;
40322;SDS011;26030;51.164;17.100;2022-09-13T03:52:12;3.80;;;2.00;;
40322;SDS011;26030;51.164;17.100;2022-09-13T03:57:22;4.40;;;2.30;;
40322;SDS011;26030;51.164;17.100;2022-09-13T04:02:25;3.30;;;2.20;;
40322;SDS011;26030;51.164;17.100;2022-09-13T04:07:29;5.00;;;2.30;;
40322;SDS011;26030;51.164;17.100;2022-09-13T04:12:36;3.10;;;2.00;;
40322;SDS011;26030;51.164;17.100;2022-09-13T04:17:41;3.50;;;2.20;;
40322;SDS011;26030;51.164;17.100;2022-09-13T04:22:52;3.00;;;1.90;;
40322;SDS011;26030;51.164;17.100;2022-09-13T04:27:58;3.40;;;2.30;;
40322;SDS011;26030;51.164;17.100;2022-09-13T04:33:02;3.40;;;2.40;;
40322;SDS011;26030;51.164;17.100;2022-09-13T04:38:06;4.30;;;2.00;;
40322;SDS011;26030;51.164;17.100;2022-09-13T04:43:11;2.90;;;1.90;;
40322;SDS011;26030;51.164;17.100;2022-09-13T04:48:15;2.80;;;2.10;;
40322;SDS011;26030;51.164;17.100;2022-09-13T04:53:22;4.30;;;2.20;;
40322;SDS011;26030;51.164;17.100;2022-09-13T04:58:26;3.30;;;2.10;;
40322;SDS011;26030;51.164;17.100;2022-09-13T05:03:30;3.30;;;2.00;;
40322;SDS011;26030;51.164;17.100;2022-09-13T05:08:35;3.20;;;2.30;;
40322;SDS011;26030;51.164;17.100;2022-09-13T05:13:41;2.70;;;1.80;;
40322;SDS011;26030;51.164;17.100;2022-09-13T05:18:45;3.50;;;2.20;;
40322;SDS011;26030;51.164;17.100;2022-09-13T05:23:50;3.50;;;2.00;;
40322;SDS011;26030;51.164;17.100;2022-09-13T05:28:54;5.70;;;1.90;;
40322;SDS011;26030;51.164;17.100;2022-09-13T05:34:06;3.20;;;1.80;;
40322;SDS011;26030;51.164;17.100;2022-09-13T05:39:14;5.50;;;1.90;;
40322;SDS011;26030;51.164;17.100;2022-09-13T05:44:40;4.20;;;2.10;;
40322;SDS011;26030;51.164;17.100;2022-09-13T05:49:43;8.30;;;2.10;;
40322;SDS011;26030;51.164;17.100;2022-09-13T05:55:07;8.90;;;2.10;;
40322;SDS011;26030;51.164;17.100;2022-09-13T06:00:15;7.20;;;2.20;;
40322;SDS011;26030;51.164;17.100;2022-09-13T06:05:26;5.50;;;2.20;;
40322;SDS011;26030;51.164;17.100;2022-09-13T06:10:33;7.30;;;2.30;;
40322;SDS011;26030;51.164;17.100;2022-09-13T06:15:37;5.30;;;3.00;;
40322;SDS011;26030;51.164;17.100;2022-09-13T06:20:46;8.50;;;2.30;;
40322;SDS011;26030;51.164;17.100;2022-09-13T06:25:50;5.00;;;2.10;;
40322;SDS011;26030;51.164;17.100;2022-09-13T06:31:06;18.30;;;2.70;;
40322;SDS011;26030;51.164;17.100;2022-09-13T06:36:21;8.60;;;3.50;;
40322;SDS011;26030;51.164;17.100;2022-09-13T06:41:28;8.30;;;3.10;;
40322;SDS011;26030;51.164;17.100;2022-09-13T06:46:33;10.10;;;3.70;;
40322;SDS011;26030;51.164;17.100;2022-09-13T06:51:37;5.50;;;2.90;;
40322;SDS011;26030;51.164;17.100;2022-09-13T06:56:40;9.90;;;3.20;;
40322;SDS011;26030;51.164;17.100;2022-09-13T07:01:44;8.90;;;3.20;;
40322;SDS011;26030;51.164;17.100;2022-09-13T07:06:48;6.30;;;3.60;;
40322;SDS011;26030;51.164;17.100;2022-09-13T07:11:54;7.40;;;3.70;;
40322;SDS011;26030;51.164;17.100;2022-09-13T07:16:58;7.60;;;3.30;;
40322;SDS011;26030;51.164;17.100;2022-09-13T07:22:02;8.30;;;3.80;;
40322;SDS011;26030;51.164;17.100;2022-09-13T07:27:07;6.90;;;3.40;;
40322;SDS011;26030;51.164;17.100;2022-09-13T07:32:10;7.20;;;3.50;;
40322;SDS011;26030;51.164;17.100;2022-09-13T07:37:14;6.70;;;3.30;;
40322;SDS011;26030;51.164;17.100;2022-09-13T07:42:17;6.70;;;3.00;;
40322;SDS011;26030;51.164;17.100;2022-09-13T07:47:21;5.70;;;2.80;;
40322;SDS011;26030;51.164;17.100;2022-09-13T07:52:24;5.30;;;2.90;;
40322;SDS011;26030;51.164;17.100;2022-09-13T07:57:27;6.40;;;3.10;;
40322;SDS011;26030;51.164;17.100;2022-09-13T08:02:31;5.70;;;3.30;;
40322;SDS011;26030;51.164;17.100;2022-09-13T08:07:35;9.50;;;3.60;;
40322;SDS011;26030;51.164;17.100;2022-09-13T08:12:42;8.70;;;3.30;;
40322;SDS011;26030;51.164;17.100;2022-09-13T08:17:46;6.30;;;3.10;;
40322;SDS011;26030;51.164;17.100;2022-09-13T08:22:49;5.00;;;3.10;;
40322;SDS011;26030;51.164;17.100;2022-09-13T08:27:53;4.00;;;2.80;;
40322;SDS011;26030;51.164;17.100;2022-09-13T08:32:56;5.20;;;3.20;;
40322;SDS011;26030;51.164;17.100;2022-09-13T08:38:00;6.80;;;3.00;;
40322;SDS011;26030;51.164;17.100;2022-09-13T08:48:26;11.70;;;3.10;;
40322;SDS011;26030;51.164;17.100;2022-09-13T08:53:43;7.30;;;3.40;;
40322;SDS011;26030;51.164;17.100;2022-09-13T08:58:57;5.80;;;3.20;;
40322;SDS011;26030;51.164;17.100;2022-09-13T09:04:19;5.70;;;3.30;;
40322;SDS011;26030;51.164;17.100;2022-09-13T09:09:34;6.20;;;3.60;;
40322;SDS011;26030;51.164;17.100;2022-09-13T09:14:42;8.30;;;4.10;;
40322;SDS011;26030;51.164;17.100;2022-09-13T09:19:53;6.20;;;3.20;;
40322;SDS011;26030;51.164;17.100;2022-09-13T09:24:58;7.90;;;3.30;;
40322;SDS011;26030;51.164;17.100;2022-09-13T09:30:05;6.30;;;3.50;;
40322;SDS011;26030;51.164;17.100;2022-09-13T09:40:40;6.20;;;3.10;;
40322;SDS011;26030;51.164;17.100;2022-09-13T09:45:44;6.10;;;3.00;;
40322;SDS011;26030;51.164;17.100;2022-09-13T09:50:52;4.10;;;2.80;;
40322;SDS011;26030;51.164;17.100;2022-09-13T09:56:23;3.70;;;2.50;;
40322;SDS011;26030;51.164;17.100;2022-09-13T10:01:33;6.40;;;3.10;;
40322;SDS011;26030;51.164;17.100;2022-09-13T10:06:41;4.50;;;3.10;;
40322;SDS011;26030;51.164;17.100;2022-09-13T10:11:52;4.10;;;3.10;;
40322;SDS011;26030;51.164;17.100;2022-09-13T10:17:24;4.30;;;2.80;;
40322;SDS011;26030;51.164;17.100;2022-09-13T10:22:31;6.00;;;3.10;;
40322;SDS011;26030;51.164;17.100;2022-09-13T10:27:39;3.50;;;2.90;;
40322;SDS011;26030;51.164;17.100;2022-09-13T10:32:54;5.70;;;3.20;;
40322;SDS011;26030;51.164;17.100;2022-09-13T10:37:59;4.70;;;2.60;;
40322;SDS011;26030;51.164;17.100;2022-09-13T10:43:14;4.10;;;2.90;;
40322;SDS011;26030;51.164;17.100;2022-09-13T10:48:18;4.00;;;3.10;;
40322;SDS011;26030;51.164;17.100;2022-09-13T10:53:34;4.80;;;3.00;;
40322;SDS011;26030;51.164;17.100;2022-09-13T10:58:38;5.10;;;3.10;;
40322;SDS011;26030;51.164;17.100;2022-09-13T11:36:24;5.40;;;3.40;;
40322;SDS011;26030;51.164;17.100;2022-09-13T11:58:11;4.60;;;3.20;;
40322;SDS011;26030;51.164;17.100;2022-09-13T12:08:43;4.60;;;3.00;;
40322;SDS011;26030;51.164;17.100;2022-09-13T12:13:51;5.00;;;3.20;;
40322;SDS011;26030;51.164;17.100;2022-09-13T12:19:01;5.80;;;3.40;;
40322;SDS011;26030;51.164;17.100;2022-09-13T12:24:20;4.20;;;3.50;;
40322;SDS011;26030;51.164;17.100;2022-09-13T12:29:38;5.70;;;3.30;;
40322;SDS011;26030;51.164;17.100;2022-09-13T12:34:50;5.30;;;3.00;;
40322;SDS011;26030;51.164;17.100;2022-09-13T12:45:36;6.60;;;3.50;;
40322;SDS011;26030;51.164;17.100;2022-09-13T13:07:15;6.20;;;3.20;;
40322;SDS011;26030;51.164;17.100;2022-09-13T13:12:25;4.10;;;3.00;;
40322;SDS011;26030;51.164;17.100;2022-09-13T13:17:49;3.80;;;3.10;;
40322;SDS011;26030;51.164;17.100;2022-09-13T13:23:03;4.10;;;3.20;;
40322;SDS011;26030;51.164;17.100;2022-09-13T13:33:53;6.60;;;3.30;;
40322;SDS011;26030;51.164;17.100;2022-09-13T13:38:59;3.80;;;2.90;;
40322;SDS011;26030;51.164;17.100;2022-09-13T13:59:43;5.30;;;3.30;;
40322;SDS011;26030;51.164;17.100;2022-09-13T14:10:48;4.10;;;3.40;;
40322;SDS011;26030;51.164;17.100;2022-09-13T14:21:31;4.50;;;3.50;;
40322;SDS011;26030;51.164;17.100;2022-09-13T14:26:38;5.90;;;3.60;;
40322;SDS011;26030;51.164;17.100;2022-09-13T14:31:45;5.40;;;3.40;;
40322;SDS011;26030;51.164;17.100;2022-09-13T14:36:53;4.90;;;3.70;;
40322;SDS011;26030;51.164;17.100;2022-09-13T14:53:34;3.80;;;3.30;;
40322;SDS011;26030;51.164;17.100;2022-09-13T14:58:52;7.00;;;4.20;;
40322;SDS011;26030;51.164;17.100;2022-09-13T15:04:01;4.50;;;3.70;;
40322;SDS011;26030;51.164;17.100;2022-09-13T15:09:26;8.20;;;3.50;;
40322;SDS011;26030;51.164;17.100;2022-09-13T15:14:35;6.70;;;3.20;;
40322;SDS011;26030;51.164;17.100;2022-09-13T15:19:49;10.90;;;5.60;;
40322;SDS011;26030;51.164;17.100;2022-09-13T15:24:57;13.00;;;6.70;;
40322;SDS011;26030;51.164;17.100;2022-09-13T15:30:04;14.00;;;6.90;;
40322;SDS011;26030;51.164;17.100;2022-09-13T15:35:26;16.50;;;8.50;;
40322;SDS011;26030;51.164;17.100;2022-09-13T15:40:41;8.50;;;5.80;;
40322;SDS011;26030;51.164;17.100;2022-09-13T15:45:46;8.20;;;5.20;;
40322;SDS011;26030;51.164;17.100;2022-09-13T15:51:08;9.80;;;4.90;;
40322;SDS011;26030;51.164;17.100;2022-09-13T15:56:16;7.80;;;4.60;;
40322;SDS011;26030;51.164;17.100;2022-09-13T16:01:31;7.40;;;4.70;;
40322;SDS011;26030;51.164;17.100;2022-09-13T16:06:36;10.90;;;4.90;;
40322;SDS011;26030;51.164;17.100;2022-09-13T16:11:40;8.10;;;4.50;;
40322;SDS011;26030;51.164;17.100;2022-09-13T16:16:44;8.40;;;4.10;;
40322;SDS011;26030;51.164;17.100;2022-09-13T16:21:48;7.20;;;4.00;;
40322;SDS011;26030;51.164;17.100;2022-09-13T16:26:52;7.40;;;4.10;;
40322;SDS011;26030;51.164;17.100;2022-09-13T16:31:57;8.90;;;4.00;;
40322;SDS011;26030;51.164;17.100;2022-09-13T16:37:02;9.80;;;4.20;;
40322;SDS011;26030;51.164;17.100;2022-09-13T16:42:08;7.30;;;4.10;;
40322;SDS011;26030;51.164;17.100;2022-09-13T16:47:15;6.00;;;3.60;;
40322;SDS011;26030;51.164;17.100;2022-09-13T16:52:18;8.50;;;4.20;;
40322;SDS011;26030;51.164;17.100;2022-09-13T16:57:22;7.00;;;4.20;;
40322;SDS011;26030;51.164;17.100;2022-09-13T17:02:30;7.40;;;4.10;;
40322;SDS011;26030;51.164;17.100;2022-09-13T17:07:34;8.40;;;4.30;;
40322;SDS011;26030;51.164;17.100;2022-09-13T17:12:39;5.90;;;3.70;;
40322;SDS011;26030;51.164;17.100;2022-09-13T17:17:46;5.20;;;3.90;;
40322;SDS011;26030;51.164;17.100;2022-09-13T17:22:53;9.80;;;4.10;;
40322;SDS011;26030;51.164;17.100;2022-09-13T17:27:58;6.70;;;4.30;;
40322;SDS011;26030;51.164;17.100;2022-09-13T17:33:03;5.80;;;3.80;;
40322;SDS011;26030;51.164;17.100;2022-09-13T17:38:20;5.50;;;3.70;;
40322;SDS011;26030;51.164;17.100;2022-09-13T17:43:36;5.20;;;4.00;;
40322;SDS011;26030;51.164;17.100;2022-09-13T17:48:55;5.50;;;3.90;;
40322;SDS011;26030;51.164;17.100;2022-09-13T17:54:06;4.80;;;3.70;;
40322;SDS011;26030;51.164;17.100;2022-09-13T17:59:20;5.60;;;4.10;;
40322;SDS011;26030;51.164;17.100;2022-09-13T18:04:31;7.50;;;3.70;;
40322;SDS011;26030;51.164;17.100;2022-09-13T18:09:40;4.90;;;3.80;;
40322;SDS011;26030;51.164;17.100;2022-09-13T18:14:45;4.60;;;3.70;;
40322;SDS011;26030;51.164;17.100;2022-09-13T18:19:50;5.40;;;4.10;;
40322;SDS011;26030;51.164;17.100;2022-09-13T18:24:58;7.30;;;3.90;;
40322;SDS011;26030;51.164;17.100;2022-09-13T18:30:12;5.30;;;4.00;;
40322;SDS011;26030;51.164;17.100;2022-09-13T18:35:36;6.40;;;3.80;;
40322;SDS011;26030;51.164;17.100;2022-09-13T18:41:07;5.70;;;3.80;;
40322;SDS011;26030;51.164;17.100;2022-09-13T18:46:30;7.50;;;4.20;;
40322;SDS011;26030;51.164;17.100;2022-09-13T18:51:48;9.10;;;4.10;;
40322;SDS011;26030;51.164;17.100;2022-09-13T18:56:57;12.50;;;4.60;;
40322;SDS011;26030;51.164;17.100;2022-09-13T19:02:08;7.90;;;4.30;;
40322;SDS011;26030;51.164;17.100;2022-09-13T19:07:28;10.60;;;3.80;;
40322;SDS011;26030;51.164;17.100;2022-09-13T19:12:35;18.50;;;4.50;;
40322;SDS011;26030;51.164;17.100;2022-09-13T19:17:46;13.20;;;4.10;;
40322;SDS011;26030;51.164;17.100;2022-09-13T19:28:13;14.50;;;4.80;;
40322;SDS011;26030;51.164;17.100;2022-09-13T19:33:29;8.40;;;4.70;;
40322;SDS011;26030;51.164;17.100;2022-09-13T19:38:55;7.40;;;4.50;;
40322;SDS011;26030;51.164;17.100;2022-09-13T19:44:02;11.90;;;4.90;;
40322;SDS011;26030;51.164;17.100;2022-09-13T19:49:14;14.10;;;5.50;;
40322;SDS011;26030;51.164;17.100;2022-09-13T19:54:18;8.40;;;4.30;;
40322;SDS011;26030;51.164;17.100;2022-09-13T19:59:26;9.60;;;4.60;;
40322;SDS011;26030;51.164;17.100;2022-09-13T20:04:34;6.90;;;4.10;;
40322;SDS011;26030;51.164;17.100;2022-09-13T20:09:44;8.60;;;3.80;;
40322;SDS011;26030;51.164;17.100;2022-09-13T20:14:50;8.30;;;4.10;;
40322;SDS011;26030;51.164;17.100;2022-09-13T20:19:54;8.00;;;4.40;;
40322;SDS011;26030;51.164;17.100;2022-09-13T20:24:59;6.60;;;4.10;;
40322;SDS011;26030;51.164;17.100;2022-09-13T20:30:05;11.80;;;4.40;;
40322;SDS011;26030;51.164;17.100;2022-09-13T20:35:12;11.70;;;4.20;;
40322;SDS011;26030;51.164;17.100;2022-09-13T20:40:27;7.90;;;4.00;;
40322;SDS011;26030;51.164;17.100;2022-09-13T20:45:36;6.20;;;4.40;;
40322;SDS011;26030;51.164;17.100;2022-09-13T20:50:41;7.00;;;4.30;;
40322;SDS011;26030;51.164;17.100;2022-09-13T20:56:20;8.50;;;4.10;;
40322;SDS011;26030;51.164;17.100;2022-09-13T21:01:27;6.10;;;4.10;;
40322;SDS011;26030;51.164;17.100;2022-09-13T21:06:37;7.20;;;4.40;;
40322;SDS011;26030;51.164;17.100;2022-09-13T21:12:17;4.60;;;3.70;;
40322;SDS011;26030;51.164;17.100;2022-09-13T21:17:20;5.40;;;3.90;;
40322;SDS011;26030;51.164;17.100;2022-09-13T21:22:25;9.10;;;4.10;;
40322;SDS011;26030;51.164;17.100;2022-09-13T21:27:35;7.80;;;4.60;;
40322;SDS011;26030;51.164;17.100;2022-09-13T21:32:40;10.50;;;4.30;;
40322;SDS011;26030;51.164;17.100;2022-09-13T21:37:43;5.70;;;4.30;;
40322;SDS011;26030;51.164;17.100;2022-09-13T21:42:47;7.80;;;4.30;;
40322;SDS011;26030;51.164;17.100;2022-09-13T21:47:51;8.40;;;5.20;;
40322;SDS011;26030;51.164;17.100;2022-09-13T21:52:58;7.90;;;3.90;;
40322;SDS011;26030;51.164;17.100;2022-09-13T21:58:02;7.80;;;4.50;;
40322;SDS011;26030;51.164;17.100;2022-09-13T22:03:09;9.90;;;4.10;;
40322;SDS011;26030;51.164;17.100;2022-09-13T22:08:12;6.00;;;3.80;;
40322;SDS011;26030;51.164;17.100;2022-09-13T22:13:16;5.90;;;4.00;;
40322;SDS011;26030;51.164;17.100;2022-09-13T22:18:19;8.20;;;4.30;;
40322;SDS011;26030;51.164;17.100;2022-09-13T22:23:23;7.10;;;3.90;;
40322;SDS011;26030;51.164;17.100;2022-09-13T22:28:27;6.10;;;4.30;;
40322;SDS011;26030;51.164;17.100;2022-09-13T22:33:36;6.40;;;3.90;;
40322;SDS011;26030;51.164;17.100;2022-09-13T22:38:42;7.20;;;4.30;;
40322;SDS011;26030;51.164;17.100;2022-09-13T22:43:48;6.20;;;4.10;;
40322;SDS011;26030;51.164;17.100;2022-09-13T22:48:55;9.20;;;4.50;;
40322;SDS011;26030;51.164;17.100;2022-09-13T22:54:06;6.40;;;3.80;;
40322;SDS011;26030;51.164;17.100;2022-09-13T22:59:18;8.40;;;4.80;;
40322;SDS011;26030;51.164;17.100;2022-09-13T23:04:25;5.10;;;3.30;;
40322;SDS011;26030;51.164;17.100;2022-09-13T23:09:29;7.00;;;3.90;;
40322;SDS011;26030;51.164;17.100;2022-09-13T23:14:36;8.30;;;4.20;;
40322;SDS011;26030;51.164;17.100;2022-09-13T23:19:44;5.60;;;4.20;;
40322;SDS011;26030;51.164;17.100;2022-09-13T23:24:48;4.40;;;3.50;;
40322;SDS011;26030;51.164;17.100;2022-09-13T23:29:54;6.00;;;4.10;;
40322;SDS011;26030;51.164;17.100;2022-09-13T23:34:59;6.10;;;4.10;;
40322;SDS011;26030;51.164;17.100;2022-09-13T23:40:04;6.40;;;3.90;;
40322;SDS011;26030;51.164;17.100;2022-09-13T23:45:13;5.50;;;4.00;;
40322;SDS011;26030;51.164;17.100;2022-09-13T23:50:20;8.10;;;4.10;;
40322;SDS011;26030;51.164;17.100;2022-09-13T23:55:32;6.70;;;4.10;;
